createdAt,value
2022-12-05T00:01:37.345Z,38.97
2022-12-05T00:04:08.600Z,35.80
2022-12-05T00:06:39.114Z,34.90
2022-12-05T00:09:08.553Z,37.03
2022-12-05T00:11:37.743Z,33.38
2022-12-05T00:14:06.347Z,37.72
2022-12-05T00:16:37.977Z,37.42
2022-12-05T00:19:06.270Z,38.78
2022-12-05T00:21:35.900Z,37.05
2022-12-05T00:24:04.497Z,36.85
2022-12-05T00:26:31.966Z,39.00
2022-12-05T00:28:58.977Z,36.85
2022-12-05T00:31:30.990Z,39.10
2022-12-05T00:34:00.871Z,38.72
2022-12-05T00:36:30.704Z,35.17
2022-12-05T00:39:02.886Z,38.17
2022-12-05T00:41:35.009Z,40.80
2022-12-05T00:44:03.025Z,34.70
2022-12-05T00:46:33.680Z,37.42
2022-12-05T00:49:10.071Z,39.85
2022-12-05T00:51:42.440Z,35.95
2022-12-05T00:54:12.322Z,40.55
2022-12-05T00:56:42.261Z,36.78
2022-12-05T00:59:12.750Z,40.75
2022-12-05T01:01:43.698Z,39.70
2022-12-05T01:04:16.543Z,40.45
2022-12-05T01:06:43.859Z,37.92
2022-12-05T01:09:18.618Z,35.58
2022-12-05T01:11:45.574Z,34.03
2022-12-05T01:14:16.120Z,36.67
2022-12-05T01:16:45.324Z,38.50
2022-12-05T01:19:19.500Z,38.70
2022-12-05T01:21:47.771Z,36.38
2022-12-05T01:24:15.480Z,34.75
2022-12-05T01:26:42.690Z,35.28
2022-12-05T01:29:14.258Z,35.65
2022-12-05T01:31:41.733Z,33.00
2022-12-05T01:34:16.488Z,33.78
2022-12-05T01:36:46.388Z,38.22
2022-12-05T01:39:13.685Z,32.22
2022-12-05T01:41:48.622Z,36.65
2022-12-05T01:44:15.283Z,36.28
2022-12-05T01:46:46.027Z,35.65
2022-12-05T01:49:14.366Z,36.83
2022-12-05T01:51:46.110Z,37.50
2022-12-05T01:54:15.967Z,33.42
2022-12-05T01:56:53.458Z,34.88
2022-12-05T01:59:21.207Z,33.00
2022-12-05T02:01:47.920Z,34.50
2022-12-05T02:04:17.072Z,33.88
2022-12-05T02:06:46.593Z,35.60
2022-12-05T02:09:13.734Z,36.28
2022-12-05T02:11:59.580Z,39.40
2022-12-05T02:15:01.881Z,37.60
2022-12-05T02:18:04.088Z,36.75
2022-12-05T02:20:33.793Z,35.25
2022-12-05T02:23:26.088Z,36.35
2022-12-05T02:26:04.766Z,35.60
2022-12-05T02:28:46.126Z,33.40
2022-12-05T02:31:28.408Z,38.22
2022-12-05T02:34:35.857Z,35.63
2022-12-05T02:37:20.897Z,35.28
2022-12-05T02:39:56.789Z,34.25
2022-12-05T02:43:08.216Z,34.03
2022-12-05T02:45:38.395Z,37.42
2022-12-05T02:48:09.284Z,37.80
2022-12-05T02:50:40.851Z,36.25
2022-12-05T02:53:15.017Z,34.55
2022-12-05T02:55:43.446Z,39.90
2022-12-05T02:58:16.984Z,39.65
2022-12-05T03:00:47.430Z,31.27
2022-12-05T03:03:19.316Z,34.95
2022-12-05T03:05:51.558Z,32.50
2022-12-05T03:08:23.422Z,34.53
2022-12-05T03:10:53.253Z,31.90
2022-12-05T03:13:34.363Z,31.42
2022-12-05T03:16:08.405Z,39.60
2022-12-05T03:18:45.030Z,35.70
2022-12-05T03:21:24.658Z,31.55
2022-12-05T03:23:58.502Z,30.90
2022-12-05T03:26:40.864Z,28.98
2022-12-05T03:29:38.565Z,32.03
2022-12-05T03:32:16.588Z,29.77
2022-12-05T03:34:46.201Z,31.58
2022-12-05T03:37:48.162Z,30.55
2022-12-05T03:40:38.824Z,31.55
2022-12-05T03:43:49.744Z,30.40
2022-12-05T03:46:38.964Z,28.95
2022-12-05T03:49:26.905Z,30.35
2022-12-05T03:53:10.962Z,29.70
2022-12-05T03:55:32.365Z,31.77
2022-12-05T03:58:12.798Z,33.80
2022-12-05T04:00:45.645Z,27.55
2022-12-05T04:03:17.717Z,30.15
2022-12-05T04:06:01.611Z,26.00
2022-12-05T04:08:36.615Z,27.08
2022-12-05T04:11:07.402Z,27.10
2022-12-05T04:13:42.290Z,27.52
2022-12-05T04:16:33.486Z,26.02
2022-12-05T04:19:16.697Z,25.50
2022-12-05T04:21:49.912Z,24.90
2022-12-05T04:24:41.973Z,26.27
2022-12-05T04:27:13.679Z,27.95
2022-12-05T04:29:57.334Z,27.50
2022-12-05T04:32:29.605Z,23.83
2022-12-05T04:35:01.573Z,25.75
2022-12-05T04:37:34.096Z,24.85
2022-12-05T04:40:11.849Z,25.85
2022-12-05T04:42:42.745Z,27.13
2022-12-05T04:45:15.567Z,28.98
2022-12-05T04:47:53.203Z,27.02
2022-12-05T04:50:23.253Z,25.75
2022-12-05T04:52:56.450Z,25.75
2022-12-05T04:55:30.268Z,21.63
2022-12-05T04:58:19.409Z,27.52
2022-12-05T05:00:50.488Z,22.60
2022-12-05T05:03:34.282Z,23.80
2022-12-05T05:06:03.507Z,25.48
2022-12-05T05:08:30.573Z,23.35
2022-12-05T05:11:14.547Z,25.65
2022-12-05T05:13:43.787Z,21.92
2022-12-05T05:16:27.127Z,21.75
2022-12-05T05:18:58.879Z,20.63
2022-12-05T05:21:25.519Z,23.15
2022-12-05T05:23:57.695Z,22.10
2022-12-05T05:26:28.210Z,18.83
2022-12-05T05:28:55.100Z,21.75
2022-12-05T05:31:21.979Z,20.75
2022-12-05T05:33:54.874Z,18.33
2022-12-05T05:36:26.086Z,24.77
2022-12-05T05:38:56.969Z,21.38
2022-12-05T05:41:25.920Z,21.48
2022-12-05T05:43:53.422Z,21.35
2022-12-05T05:46:23.335Z,22.70
2022-12-05T05:48:52.340Z,21.67
2022-12-05T05:51:23.485Z,23.17
2022-12-05T05:53:52.392Z,23.33
2022-12-05T05:56:24.814Z,23.67
2022-12-05T05:58:56.975Z,26.17
2022-12-05T06:01:26.853Z,27.10
2022-12-05T06:03:53.725Z,24.55
2022-12-05T06:06:21.178Z,24.45
2022-12-05T06:08:48.601Z,23.88
2022-12-05T06:11:25.351Z,24.02
2022-12-05T06:14:00.917Z,26.48
2022-12-05T06:16:33.954Z,26.23
2022-12-05T06:19:02.852Z,26.20
2022-12-05T06:21:29.580Z,26.38
2022-12-05T06:23:58.367Z,26.90
2022-12-05T06:26:27.506Z,22.85
2022-12-05T06:28:54.517Z,25.33
2022-12-05T06:31:27.008Z,27.67
2022-12-05T06:33:56.394Z,22.58
2022-12-05T06:36:26.691Z,22.20
2022-12-05T06:38:53.352Z,21.25
2022-12-05T06:41:24.367Z,22.55
2022-12-05T06:44:02.586Z,26.15
2022-12-05T06:46:32.176Z,25.70
2022-12-05T06:48:59.816Z,24.77
2022-12-05T06:51:29.028Z,25.40
2022-12-05T06:54:00.532Z,23.13
2022-12-05T06:56:27.319Z,28.02
2022-12-05T06:58:56.473Z,26.67
2022-12-05T07:01:42.315Z,24.95
2022-12-05T07:06:54.667Z,25.95
2022-12-05T07:09:44.311Z,24.33
2022-12-05T07:12:12.090Z,25.85
2022-12-05T07:14:49.559Z,31.15
2022-12-05T07:17:20.945Z,28.55
2022-12-05T07:19:51.887Z,28.38
2022-12-05T07:22:25.659Z,26.38
2022-12-05T07:24:53.180Z,26.80
2022-12-05T07:27:27.344Z,28.17
2022-12-05T07:29:57.576Z,27.55
2022-12-05T07:32:24.574Z,27.25
2022-12-05T07:34:55.300Z,24.40
2022-12-05T07:37:22.706Z,31.25
2022-12-05T07:39:51.950Z,26.80
2022-12-05T07:42:21.141Z,26.02
2022-12-05T07:44:52.847Z,27.95
2022-12-05T07:47:21.811Z,24.42
2022-12-05T07:49:48.563Z,24.80
2022-12-05T07:52:15.322Z,24.88
2022-12-05T07:54:44.241Z,27.33
2022-12-05T07:57:13.043Z,25.63
2022-12-05T07:59:42.010Z,20.95
2022-12-05T08:02:09.560Z,21.33
2022-12-05T08:04:41.259Z,22.42
2022-12-05T08:07:12.996Z,23.20
2022-12-05T08:09:42.179Z,20.75
2022-12-05T08:12:08.892Z,24.92
2022-12-05T08:14:38.066Z,22.35
2022-12-05T08:17:07.372Z,22.88
2022-12-05T08:19:36.523Z,22.92
2022-12-05T08:22:03.244Z,24.05
2022-12-05T08:24:34.390Z,21.90
2022-12-05T08:27:03.243Z,21.15
2022-12-05T08:29:30.097Z,21.08
2022-12-05T08:31:58.929Z,23.15
2022-12-05T08:34:27.836Z,21.25
2022-12-05T08:36:54.471Z,20.05
2022-12-05T08:39:23.424Z,18.15
2022-12-05T08:41:50.594Z,20.08
2022-12-05T08:44:18.629Z,23.83
2022-12-05T08:46:51.900Z,21.50
2022-12-05T08:49:19.303Z,22.35
2022-12-05T08:51:46.289Z,23.60
2022-12-05T08:54:17.808Z,23.88
2022-12-05T08:56:44.542Z,25.85
2022-12-05T08:59:11.585Z,24.50
2022-12-05T09:01:39.113Z,24.35
2022-12-05T09:04:07.660Z,23.63
2022-12-05T09:06:39.138Z,22.05
2022-12-05T09:09:08.345Z,26.65
2022-12-05T09:11:37.763Z,25.13
2022-12-05T09:14:05.178Z,23.70
2022-12-05T09:16:37.928Z,25.58
2022-12-05T09:19:07.860Z,24.98
2022-12-05T09:21:37.083Z,26.20
2022-12-05T09:24:03.844Z,26.30
2022-12-05T09:26:30.801Z,25.40
2022-12-05T09:28:58.091Z,26.08
2022-12-05T09:31:29.355Z,25.02
2022-12-05T09:33:56.438Z,22.98
2022-12-05T09:36:29.951Z,24.25
2022-12-05T09:39:00.722Z,27.67
2022-12-05T09:42:01.456Z,22.13
2022-12-05T09:44:28.119Z,24.75
2022-12-05T09:47:03.118Z,27.45
2022-12-05T09:49:34.808Z,27.23
2022-12-05T09:52:05.188Z,22.33
2022-12-05T09:54:32.835Z,24.35
2022-12-05T09:57:01.165Z,23.55
2022-12-05T09:59:27.925Z,23.20
2022-12-05T10:02:11.461Z,19.90
2022-12-05T10:05:07.134Z,22.00
2022-12-05T10:07:40.119Z,22.42
2022-12-05T10:10:29.735Z,23.55
2022-12-05T10:13:21.126Z,19.52
2022-12-05T10:16:02.946Z,24.00
2022-12-05T10:18:43.310Z,22.30
2022-12-05T10:21:21.443Z,21.27
2022-12-05T10:24:00.042Z,16.58
2022-12-05T10:26:30.793Z,21.17
2022-12-05T10:29:12.799Z,18.40
2022-12-05T10:31:39.936Z,16.73
2022-12-05T10:34:22.396Z,18.85
2022-12-05T10:36:58.288Z,17.95
2022-12-05T10:39:27.380Z,15.98
2022-12-05T10:41:55.722Z,15.90
2022-12-05T10:44:24.771Z,14.63
2022-12-05T10:46:56.252Z,14.60
2022-12-05T10:49:24.145Z,17.20
2022-12-05T10:51:51.294Z,17.70
2022-12-05T10:54:22.295Z,16.67
2022-12-05T10:56:51.875Z,18.42
2022-12-05T10:59:24.187Z,17.20
2022-12-05T11:01:55.468Z,18.10
2022-12-05T11:04:45.324Z,16.58
2022-12-05T11:07:39.318Z,14.35
2022-12-05T11:10:24.933Z,17.42
2022-12-05T11:12:55.896Z,19.17
2022-12-05T11:15:30.280Z,17.50
2022-12-05T11:18:21.283Z,19.35
2022-12-05T11:20:48.054Z,19.13
2022-12-05T11:23:29.318Z,19.85
2022-12-05T11:25:57.400Z,18.52
2022-12-05T11:28:29.369Z,19.75
2022-12-05T11:31:14.128Z,22.02
2022-12-05T11:33:43.451Z,20.05
2022-12-05T11:36:20.463Z,25.15
2022-12-05T11:38:47.419Z,23.42
2022-12-05T11:41:40.709Z,21.58
2022-12-05T11:44:31.106Z,24.60
2022-12-05T11:47:19.432Z,23.70
2022-12-05T11:50:08.955Z,24.65
2022-12-05T11:53:13.218Z,22.95
2022-12-05T11:55:51.782Z,25.17
2022-12-05T11:58:27.069Z,25.98
2022-12-05T12:01:08.172Z,24.58
2022-12-05T12:04:14.324Z,23.05
2022-12-05T12:07:02.099Z,21.47
2022-12-05T12:09:42.720Z,20.25
2022-12-05T12:12:24.602Z,21.48
2022-12-05T12:15:03.885Z,22.85
2022-12-05T12:18:05.418Z,28.45
2022-12-05T12:20:37.137Z,24.23
2022-12-05T12:23:24.270Z,25.35
2022-12-05T12:26:05.257Z,23.02
2022-12-05T12:28:38.963Z,26.10
2022-12-05T12:31:08.045Z,22.50
2022-12-05T12:33:40.046Z,23.67
2022-12-05T12:36:25.767Z,24.45
2022-12-05T12:39:05.713Z,24.23
2022-12-05T12:42:00.398Z,24.85
2022-12-05T12:44:47.747Z,23.50
2022-12-05T12:47:33.882Z,24.95
2022-12-05T12:53:03.111Z,24.40
2022-12-05T12:55:48.320Z,22.55
2022-12-05T12:58:21.091Z,19.03
2022-12-05T13:01:18.918Z,17.40
2022-12-05T13:04:02.527Z,16.88
2022-12-05T13:06:38.501Z,15.73
2022-12-05T13:09:53.230Z,15.27
2022-12-05T13:12:32.628Z,14.80
2022-12-05T13:15:10.204Z,16.88
2022-12-05T13:17:43.047Z,16.55
2022-12-05T13:20:22.976Z,16.42
2022-12-05T13:22:55.974Z,17.90
2022-12-05T13:25:33.409Z,17.10
2022-12-05T13:28:08.340Z,20.83
2022-12-05T13:30:57.790Z,21.73
2022-12-05T13:33:36.303Z,24.27
2022-12-05T13:36:34.309Z,24.38
2022-12-05T13:39:23.353Z,19.85
2022-12-05T13:42:14.799Z,23.95
2022-12-05T13:44:59.110Z,21.13
2022-12-05T13:47:49.151Z,23.35
2022-12-05T13:50:22.537Z,23.83
2022-12-05T13:52:58.740Z,24.63
2022-12-05T13:55:40.166Z,26.55
2022-12-05T13:58:18.862Z,25.00
2022-12-05T14:00:46.184Z,24.98
2022-12-05T14:03:37.385Z,23.83
2022-12-05T14:06:06.558Z,20.67
2022-12-05T14:08:35.767Z,21.35
2022-12-05T14:11:05.836Z,20.95
2022-12-05T14:13:33.645Z,24.20
2022-12-05T14:16:25.449Z,24.10
2022-12-05T14:19:11.044Z,22.52
2022-12-05T14:22:03.639Z,20.50
2022-12-05T14:24:30.302Z,21.60
2022-12-05T14:27:08.364Z,21.80
2022-12-05T14:29:59.403Z,24.30
2022-12-05T14:32:41.139Z,23.50
2022-12-05T14:35:13.821Z,23.20
2022-12-05T14:37:56.340Z,26.02
2022-12-05T14:40:34.901Z,24.80
2022-12-05T14:43:05.823Z,22.88
2022-12-05T14:45:37.328Z,22.95
2022-12-05T14:51:34.982Z,21.88
2022-12-05T14:54:12.504Z,24.80
2022-12-05T14:56:42.749Z,25.23
2022-12-05T14:59:24.455Z,26.73
2022-12-05T15:01:57.068Z,26.45
2022-12-05T15:04:32.429Z,26.13
2022-12-05T15:07:09.710Z,26.05
2022-12-05T15:09:58.023Z,25.73
2022-12-05T15:12:42.667Z,26.38
2022-12-05T15:15:19.808Z,22.20
2022-12-05T15:17:58.144Z,23.90
2022-12-05T15:20:40.978Z,22.23
2022-12-05T15:23:38.974Z,22.70
2022-12-05T15:26:45.570Z,26.77
2022-12-05T15:29:21.039Z,23.45
2022-12-05T15:31:51.930Z,18.88
2022-12-05T15:34:25.107Z,17.95
2022-12-05T15:37:01.467Z,18.58
2022-12-05T15:39:54.239Z,16.38
2022-12-05T15:42:47.946Z,16.95
2022-12-05T15:45:14.697Z,18.50
2022-12-05T15:47:41.352Z,18.35
2022-12-05T15:50:40.867Z,17.45
2022-12-05T15:53:16.822Z,17.33
2022-12-05T15:55:48.522Z,18.20
2022-12-05T15:58:15.124Z,19.25
2022-12-05T16:00:45.746Z,21.33
2022-12-05T16:03:33.688Z,20.65
2022-12-05T16:06:28.223Z,20.58
2022-12-05T16:08:56.663Z,19.27
2022-12-05T16:11:23.786Z,20.25
2022-12-05T16:14:01.070Z,25.27
2022-12-05T16:16:34.859Z,21.70
2022-12-05T16:19:22.228Z,22.85
2022-12-05T16:22:14.586Z,23.08
2022-12-05T16:24:43.238Z,20.63
2022-12-05T16:27:23.342Z,22.05
2022-12-05T16:30:20.008Z,20.60
2022-12-05T16:32:49.149Z,21.75
2022-12-05T16:35:45.547Z,18.80
2022-12-05T16:38:18.325Z,20.50
2022-12-05T16:40:58.628Z,17.67
2022-12-05T16:43:32.843Z,17.13
2022-12-05T16:46:01.912Z,18.08
2022-12-05T16:48:37.835Z,16.48
2022-12-05T16:51:13.669Z,18.60
2022-12-05T16:53:48.359Z,20.45
2022-12-05T16:56:22.028Z,16.88
2022-12-05T16:58:48.939Z,19.33
2022-12-05T17:01:24.685Z,18.05
2022-12-05T17:03:55.173Z,18.15
2022-12-05T17:06:23.953Z,15.90
2022-12-05T17:08:52.541Z,18.58
2022-12-05T17:11:21.372Z,18.67
2022-12-05T17:13:49.200Z,17.55
2022-12-05T17:16:19.299Z,17.50
2022-12-05T17:18:46.590Z,17.67
2022-12-05T17:21:23.793Z,18.13
2022-12-05T17:23:50.975Z,18.67
2022-12-05T17:26:21.528Z,18.70
2022-12-05T17:28:49.183Z,19.33
2022-12-05T17:31:23.203Z,18.48
2022-12-05T17:33:53.949Z,16.85
2022-12-05T17:36:23.005Z,18.70
2022-12-05T17:38:52.423Z,17.63
2022-12-05T17:41:23.684Z,18.73
2022-12-05T17:43:51.441Z,18.77
2022-12-05T17:46:20.703Z,19.15
2022-12-05T17:48:48.270Z,19.85
2022-12-05T17:51:17.971Z,21.15
2022-12-05T17:53:45.616Z,23.25
2022-12-05T17:56:13.130Z,22.58
2022-12-05T17:58:40.353Z,21.70
2022-12-05T18:01:17.104Z,22.90
2022-12-05T18:03:44.273Z,20.25
2022-12-05T18:06:11.774Z,19.40
2022-12-05T18:08:44.150Z,20.98
2022-12-05T18:11:12.631Z,19.98
2022-12-05T18:13:39.345Z,22.90
2022-12-05T18:16:06.502Z,24.08
2022-12-05T18:18:38.011Z,21.33
2022-12-05T18:21:12.244Z,22.45
2022-12-05T18:23:42.655Z,21.90
2022-12-05T18:26:10.414Z,21.33
2022-12-05T18:28:41.494Z,18.98
2022-12-05T18:31:15.181Z,22.98
2022-12-05T18:33:44.257Z,18.58
2022-12-05T18:36:15.684Z,19.42
2022-12-05T18:38:43.321Z,21.80
2022-12-05T18:41:14.597Z,20.48
2022-12-05T18:43:41.329Z,21.42
2022-12-05T18:46:13.521Z,21.40
2022-12-05T18:48:46.065Z,21.65
2022-12-05T18:51:15.028Z,16.45
2022-12-05T18:53:42.443Z,16.92
2022-12-05T18:56:22.014Z,16.35
2022-12-05T18:59:06.562Z,17.27
2022-12-05T19:01:38.650Z,15.27
2022-12-05T19:04:07.576Z,15.57
2022-12-05T19:06:40.009Z,16.10
2022-12-05T19:09:13.668Z,13.63
2022-12-05T19:11:47.571Z,15.75
2022-12-05T19:14:18.853Z,20.02
2022-12-05T19:16:47.952Z,15.85
2022-12-05T19:19:17.955Z,17.92
2022-12-05T19:21:45.411Z,16.45
2022-12-05T19:24:17.002Z,19.33
2022-12-05T19:26:47.864Z,14.07
2022-12-05T19:29:18.176Z,14.50
2022-12-05T19:31:47.812Z,14.90
2022-12-05T19:34:14.592Z,17.13
2022-12-05T19:36:44.283Z,12.95
2022-12-05T19:39:13.654Z,14.52
2022-12-05T19:41:40.369Z,13.48
2022-12-05T19:44:09.782Z,12.77
2022-12-05T19:46:36.942Z,12.20
2022-12-05T19:49:09.806Z,13.95
2022-12-05T19:51:36.979Z,13.35
2022-12-05T19:54:07.390Z,15.70
2022-12-05T19:56:35.917Z,16.98
2022-12-05T19:59:03.654Z,13.30
2022-12-05T20:01:39.399Z,14.57
2022-12-05T20:04:08.057Z,15.55
2022-12-05T20:06:40.854Z,15.35
2022-12-05T20:09:09.695Z,13.10
2022-12-05T20:11:39.247Z,16.17
2022-12-05T20:14:10.039Z,13.15
2022-12-05T20:16:38.954Z,18.45
2022-12-05T20:19:08.185Z,14.23
2022-12-05T20:21:40.432Z,15.70
2022-12-05T20:24:12.417Z,16.27
2022-12-05T20:26:45.752Z,13.98
2022-12-05T20:29:12.589Z,45.00
2022-12-05T20:31:44.818Z,19.90
2022-12-05T20:34:15.842Z,15.65
2022-12-05T20:36:43.237Z,14.07
2022-12-05T20:39:15.615Z,17.42
2022-12-05T20:41:45.133Z,17.52
2022-12-05T20:44:15.749Z,15.82
2022-12-05T20:46:45.239Z,18.80
2022-12-05T20:49:13.483Z,16.30
2022-12-05T20:51:44.832Z,18.35
2022-12-05T20:54:13.145Z,18.40
2022-12-05T20:56:42.760Z,17.80
2022-12-05T20:59:11.691Z,18.73
2022-12-05T21:01:39.087Z,19.75
2022-12-05T21:04:09.612Z,17.67
2022-12-05T21:06:42.283Z,19.77
2022-12-05T21:09:18.609Z,18.77
2022-12-05T21:11:47.965Z,17.95
2022-12-05T21:14:14.809Z,20.35
2022-12-05T21:16:43.686Z,19.27
2022-12-05T21:19:12.752Z,20.92
2022-12-05T21:21:41.764Z,20.10
2022-12-05T21:24:12.226Z,21.73
2022-12-05T21:26:42.581Z,20.75
2022-12-05T21:29:13.960Z,19.58
2022-12-05T21:31:44.637Z,18.83
2022-12-05T21:34:20.830Z,20.27
2022-12-05T21:36:47.647Z,19.05
2022-12-05T21:39:15.598Z,21.13
2022-12-05T21:41:42.329Z,19.77
2022-12-05T21:44:11.548Z,21.90
2022-12-05T21:46:40.861Z,20.25
2022-12-05T21:49:09.787Z,20.48
2022-12-05T21:51:36.568Z,22.90
2022-12-05T21:54:03.528Z,19.92
2022-12-05T21:56:30.253Z,19.30
2022-12-05T21:58:57.019Z,20.83
2022-12-05T22:01:28.195Z,18.45
2022-12-05T22:04:01.907Z,20.83
2022-12-05T22:06:34.298Z,22.35
2022-12-05T22:09:01.415Z,20.33
2022-12-05T22:11:35.019Z,20.25
2022-12-05T22:14:01.761Z,19.92
2022-12-05T22:16:33.866Z,25.90
2022-12-05T22:19:01.354Z,22.40
2022-12-05T22:21:28.329Z,22.92
2022-12-05T22:23:59.679Z,22.77
2022-12-05T22:26:27.360Z,20.38
2022-12-05T22:28:55.806Z,19.25
2022-12-05T22:31:25.946Z,19.95
2022-12-05T22:33:57.095Z,18.13
2022-12-05T22:36:24.469Z,19.00
2022-12-05T22:38:53.776Z,21.25
2022-12-05T22:41:25.478Z,19.25
2022-12-05T22:43:57.447Z,16.98
2022-12-05T22:46:27.394Z,18.10
2022-12-05T22:48:56.842Z,20.38
2022-12-05T22:51:23.914Z,20.42
2022-12-05T22:53:52.078Z,19.58
2022-12-05T22:56:20.298Z,19.50
2022-12-05T22:58:55.727Z,19.33
2022-12-05T23:01:33.472Z,17.27
2022-12-05T23:04:15.346Z,18.17
2022-12-05T23:06:44.490Z,17.88
2022-12-05T23:09:13.575Z,17.20
2022-12-05T23:11:45.244Z,18.25
2022-12-05T23:14:12.014Z,17.40
2022-12-05T23:16:38.783Z,17.80
2022-12-05T23:19:10.165Z,18.05
2022-12-05T23:21:42.650Z,18.02
2022-12-05T23:24:13.886Z,17.05
2022-12-05T23:26:45.363Z,15.93
2022-12-05T23:29:17.148Z,18.20
2022-12-05T23:31:44.271Z,12.80
2022-12-05T23:34:11.728Z,14.82
2022-12-05T23:36:41.025Z,16.83
2022-12-05T23:39:09.853Z,14.40
2022-12-05T23:41:36.928Z,15.63
2022-12-05T23:44:06.107Z,15.65
2022-12-05T23:46:32.878Z,12.85
2022-12-05T23:49:02.022Z,13.30
2022-12-05T23:51:32.588Z,13.50
2022-12-05T23:54:01.411Z,12.50
2022-12-05T23:56:32.303Z,13.18
2022-12-05T23:58:59.559Z,15.27
